createdAt,value
2022-08-02T00:01:37.094Z,15.30
2022-08-02T00:05:59.388Z,15.30
2022-08-02T00:10:21.673Z,15.20
2022-08-02T00:14:43.914Z,15.20
2022-08-02T00:19:05.915Z,15.10
2022-08-02T00:23:27.614Z,15.20
2022-08-02T00:27:49.773Z,15.30
2022-08-02T00:32:12.364Z,15.40
2022-08-02T00:36:34.693Z,15.50
2022-08-02T00:40:58.126Z,15.60
2022-08-02T00:45:20.153Z,15.60
2022-08-02T00:50:02.293Z,15.50
2022-08-02T00:54:24.635Z,15.40
2022-08-02T00:58:46.493Z,15.30
2022-08-02T01:03:08.733Z,15.30
2022-08-02T01:07:30.833Z,15.20
2022-08-02T01:11:52.813Z,15.20
2022-08-02T01:16:23.573Z,15.00
2022-08-02T01:21:22.714Z,15.00
2022-08-02T01:25:59.436Z,14.80
2022-08-02T01:30:22.153Z,14.70
2022-08-02T01:34:53.894Z,14.60
2022-08-02T01:39:26.648Z,14.50
2022-08-02T01:44:03.194Z,14.40
2022-08-02T01:48:28.892Z,14.40
2022-08-02T01:52:55.035Z,14.30
2022-08-02T01:57:18.772Z,14.30
2022-08-02T02:01:42.011Z,14.30
2022-08-02T02:06:07.632Z,14.30
2022-08-02T02:10:34.052Z,14.30
2022-08-02T02:14:57.193Z,14.20
2022-08-02T02:19:20.775Z,14.20
2022-08-02T02:23:43.813Z,14.10
2022-08-02T02:28:16.673Z,14.10
2022-08-02T02:32:41.198Z,14.10
2022-08-02T02:37:08.675Z,14.00
2022-08-02T02:41:30.613Z,13.90
2022-08-02T02:45:53.333Z,13.90
2022-08-02T02:50:18.112Z,13.80
2022-08-02T02:54:40.413Z,13.80
2022-08-02T02:59:03.666Z,13.70
2022-08-02T03:03:25.953Z,13.70
2022-08-02T03:07:47.853Z,13.80
2022-08-02T03:12:11.164Z,13.70
2022-08-02T03:16:33.653Z,13.70
2022-08-02T03:21:07.132Z,13.70
2022-08-02T03:25:28.834Z,13.60
2022-08-02T03:29:50.833Z,13.60
2022-08-02T03:34:12.981Z,13.60
2022-08-02T03:38:36.713Z,13.50
2022-08-02T03:42:59.474Z,13.50
2022-08-02T03:47:23.393Z,13.50
2022-08-02T03:51:46.753Z,13.50
2022-08-02T03:56:09.793Z,13.60
2022-08-02T04:00:32.110Z,13.80
2022-08-02T04:04:54.173Z,14.20
2022-08-02T04:09:16.114Z,14.90
2022-08-02T04:13:39.015Z,15.80
2022-08-02T04:18:04.122Z,16.90
2022-08-02T04:22:45.995Z,18.10
2022-08-02T04:27:48.870Z,18.90
2022-08-02T04:31:54.233Z,19.50
2022-08-02T04:36:16.393Z,19.90
2022-08-02T04:40:56.233Z,20.10
2022-08-02T04:45:19.354Z,19.60
2022-08-02T04:49:41.687Z,19.60
2022-08-02T04:54:09.295Z,20.80
2022-08-02T04:58:40.892Z,21.80
2022-08-02T05:03:03.313Z,22.90
2022-08-02T05:07:25.195Z,24.10
2022-08-02T05:11:54.899Z,25.70
2022-08-02T05:16:17.734Z,27.40
2022-08-02T05:20:39.994Z,29.50
2022-08-02T05:25:02.054Z,30.00
2022-08-02T05:29:24.174Z,27.30
2022-08-02T05:33:46.196Z,24.50
2022-08-02T05:38:10.121Z,23.00
2022-08-02T05:42:32.676Z,22.00
2022-08-02T05:46:54.693Z,22.90
2022-08-02T05:51:32.512Z,25.40
2022-08-02T05:56:42.635Z,28.60
2022-08-02T06:01:05.734Z,30.20
2022-08-02T06:05:32.969Z,31.30
2022-08-02T06:09:55.053Z,29.10
2022-08-02T06:14:18.133Z,27.60
2022-08-02T06:18:43.414Z,26.50
2022-08-02T06:23:13.302Z,26.40
2022-08-02T06:27:36.095Z,26.70
2022-08-02T06:31:59.256Z,27.10
2022-08-02T06:36:49.094Z,27.00
2022-08-02T06:41:15.034Z,27.00
2022-08-02T06:45:37.533Z,29.40
2022-08-02T06:50:00.020Z,32.50
2022-08-02T06:54:22.174Z,35.90
2022-08-02T06:58:44.196Z,36.60
2022-08-02T07:03:07.115Z,36.40
2022-08-02T07:07:29.514Z,37.10
2022-08-02T07:11:51.573Z,38.90
2022-08-02T07:16:13.613Z,40.50
2022-08-02T07:20:35.657Z,39.80
2022-08-02T07:24:59.696Z,37.90
2022-08-02T07:29:21.935Z,37.20
2022-08-02T07:33:47.078Z,37.80
2022-08-02T07:38:10.474Z,37.30
2022-08-02T07:42:32.393Z,37.50
2022-08-02T07:46:54.254Z,38.00
2022-08-02T07:51:17.430Z,39.20
2022-08-02T07:55:40.839Z,39.10
2022-08-02T08:00:05.233Z,37.40
2022-08-02T08:04:33.654Z,37.70
2022-08-02T08:08:55.979Z,39.90
2022-08-02T08:13:18.174Z,41.60
2022-08-02T08:17:40.349Z,42.50
2022-08-02T08:22:03.462Z,42.60
2022-08-02T08:26:26.874Z,43.20
2022-08-02T08:30:49.353Z,44.70
2022-08-02T08:35:11.774Z,46.70
2022-08-02T08:39:33.777Z,48.40
2022-08-02T08:44:15.618Z,47.20
2022-08-02T08:48:43.617Z,46.80
2022-08-02T08:53:12.202Z,47.00
2022-08-02T08:57:40.196Z,46.60
2022-08-02T09:02:16.865Z,47.00
2022-08-02T09:06:44.905Z,47.10
2022-08-02T09:11:23.717Z,48.40
2022-08-02T09:15:56.594Z,49.80
2022-08-02T09:20:18.874Z,50.60
2022-08-02T09:24:50.533Z,49.20
2022-08-02T09:29:12.545Z,49.00
2022-08-02T09:33:35.353Z,49.60
2022-08-02T09:38:13.066Z,48.90
2022-08-02T09:42:34.973Z,47.90
2022-08-02T09:46:57.181Z,48.20
2022-08-02T09:51:22.166Z,48.50
2022-08-02T09:55:44.075Z,48.90
2022-08-02T10:00:14.888Z,48.00
2022-08-02T10:04:52.552Z,47.80
2022-08-02T10:09:16.516Z,48.70
2022-08-02T10:13:39.054Z,48.80
2022-08-02T10:18:01.275Z,48.50
2022-08-02T10:22:25.838Z,47.40
2022-08-02T10:26:49.593Z,47.00
2022-08-02T10:31:12.632Z,47.40
2022-08-02T10:35:39.735Z,48.00
2022-08-02T10:40:02.245Z,47.20
2022-08-02T10:44:36.315Z,44.70
2022-08-02T10:54:10.072Z,45.30
2022-08-02T10:58:34.793Z,44.50
2022-08-02T11:02:56.734Z,41.20
2022-08-02T11:07:31.012Z,38.00
2022-08-02T11:12:12.476Z,36.00
2022-08-02T11:16:56.533Z,34.50
2022-08-02T11:21:33.755Z,33.60
2022-08-02T11:26:03.698Z,35.10
2022-08-02T11:30:32.773Z,35.00
2022-08-02T11:34:55.712Z,34.40
2022-08-02T11:39:22.916Z,33.80
2022-08-02T11:43:45.774Z,33.00
2022-08-02T11:48:07.674Z,32.30
2022-08-02T11:52:35.054Z,32.00
2022-08-02T11:57:19.868Z,31.90
2022-08-02T12:01:46.012Z,31.70
2022-08-02T12:06:16.406Z,31.30
2022-08-02T12:10:49.013Z,31.00
2022-08-02T12:15:11.153Z,30.50
2022-08-02T12:19:33.653Z,29.90
2022-08-02T12:23:59.454Z,29.60
2022-08-02T12:28:26.818Z,29.90
2022-08-02T12:32:49.072Z,30.10
2022-08-02T12:37:11.513Z,30.30
2022-08-02T12:41:33.693Z,30.50
2022-08-02T12:45:57.615Z,30.50
2022-08-02T12:50:43.632Z,30.40
2022-08-02T12:55:22.713Z,30.50
2022-08-02T12:59:51.174Z,30.70
2022-08-02T13:04:16.393Z,30.60
2022-08-02T13:08:39.696Z,30.20
2022-08-02T13:13:02.513Z,30.40
2022-08-02T13:17:24.612Z,30.60
2022-08-02T13:22:01.979Z,30.80
2022-08-02T13:26:31.033Z,30.60
2022-08-02T13:30:53.792Z,30.40
2022-08-02T13:35:18.171Z,30.60
2022-08-02T13:39:40.794Z,31.10
2022-08-02T13:44:10.078Z,31.50
2022-08-02T13:48:34.054Z,31.80
2022-08-02T13:52:55.919Z,31.60
2022-08-02T13:57:18.133Z,31.30
2022-08-02T14:01:40.768Z,30.90
2022-08-02T14:06:03.014Z,30.50
2022-08-02T14:10:30.501Z,30.30
2022-08-02T14:14:52.893Z,30.30
2022-08-02T14:19:15.616Z,30.50
2022-08-02T14:23:50.099Z,30.40
2022-08-02T14:28:13.083Z,30.10
2022-08-02T14:32:34.954Z,30.10
2022-08-02T14:36:57.553Z,30.10
2022-08-02T14:41:19.853Z,30.00
2022-08-02T14:45:41.880Z,30.10
2022-08-02T14:50:05.007Z,30.20
2022-08-02T14:54:30.911Z,30.10
2022-08-02T14:58:53.401Z,29.80
2022-08-02T15:03:15.265Z,29.80
2022-08-02T15:07:42.537Z,29.50
2022-08-02T15:12:07.175Z,29.40
2022-08-02T15:16:54.854Z,29.60
2022-08-02T15:21:40.166Z,29.60
2022-08-02T15:25:54.633Z,29.70
2022-08-02T15:30:16.741Z,29.60
2022-08-02T15:34:38.967Z,29.50
2022-08-02T15:39:00.872Z,29.60
2022-08-02T15:43:23.034Z,30.00
2022-08-02T15:47:50.299Z,30.40
2022-08-02T15:52:13.167Z,30.70
2022-08-02T15:56:35.615Z,30.80
2022-08-02T16:00:57.378Z,30.70
2022-08-02T16:05:20.192Z,30.60
2022-08-02T16:09:42.513Z,30.50
2022-08-02T16:14:04.711Z,30.40
2022-08-02T16:18:26.513Z,30.50
2022-08-02T16:22:48.653Z,30.50
2022-08-02T16:27:10.978Z,30.40
2022-08-02T16:31:33.215Z,30.40
2022-08-02T16:35:55.243Z,30.50
2022-08-02T16:40:17.193Z,30.50
2022-08-02T16:44:39.074Z,30.00
2022-08-02T16:50:07.276Z,29.80
2022-08-02T16:53:59.901Z,29.70
2022-08-02T16:58:22.693Z,29.70
2022-08-02T17:02:47.051Z,29.60
2022-08-02T17:08:06.303Z,29.30
2022-08-02T17:11:53.053Z,29.00
2022-08-02T17:16:20.671Z,28.50
2022-08-02T17:20:48.553Z,28.00
2022-08-02T17:25:13.633Z,27.50
2022-08-02T17:29:37.013Z,27.20
2022-08-02T17:34:04.542Z,26.90
2022-08-02T17:38:27.601Z,26.80
2022-08-02T17:42:49.633Z,26.60
2022-08-02T17:47:11.564Z,26.60
2022-08-02T17:52:48.012Z,26.50
2022-08-02T17:56:16.514Z,26.40
2022-08-02T18:00:38.891Z,26.20
2022-08-02T18:05:01.901Z,26.10
2022-08-02T18:09:27.173Z,25.90
2022-08-02T18:13:53.291Z,25.80
2022-08-02T18:18:19.299Z,25.80
2022-08-02T18:22:55.460Z,25.60
2022-08-02T18:27:18.053Z,25.40
2022-08-02T18:31:50.992Z,25.20
2022-08-02T18:36:24.384Z,25.00
2022-08-02T18:40:50.783Z,24.70
2022-08-02T18:45:19.990Z,24.50
2022-08-02T18:49:46.504Z,24.40
2022-08-02T18:54:10.322Z,24.20
2022-08-02T18:58:33.105Z,24.10
2022-08-02T19:02:55.373Z,23.90
2022-08-02T19:07:18.665Z,23.70
2022-08-02T19:11:48.245Z,23.60
2022-08-02T19:16:12.454Z,23.40
2022-08-02T19:20:35.462Z,23.20
2022-08-02T19:25:01.808Z,23.00
2022-08-02T19:29:42.343Z,22.90
2022-08-02T19:34:07.956Z,22.70
2022-08-02T19:38:30.257Z,22.40
2022-08-02T19:44:27.559Z,22.20
2022-08-02T19:47:39.344Z,22.00
2022-08-02T19:52:01.715Z,21.70
2022-08-02T19:56:43.454Z,21.50
2022-08-02T20:01:05.914Z,21.40
2022-08-02T20:05:28.145Z,21.30
2022-08-02T20:09:53.214Z,21.20
2022-08-02T20:14:14.914Z,21.00
2022-08-02T20:18:37.173Z,20.90
2022-08-02T20:23:32.680Z,20.80
2022-08-02T20:27:56.213Z,20.60
2022-08-02T20:32:24.573Z,20.50
2022-08-02T20:36:46.493Z,20.40
2022-08-02T20:41:21.671Z,20.30
2022-08-02T20:45:44.306Z,20.20
2022-08-02T20:50:31.305Z,20.10
2022-08-02T20:54:53.856Z,20.00
2022-08-02T20:59:16.249Z,19.90
2022-08-02T21:03:39.078Z,19.90
2022-08-02T21:08:04.797Z,19.80
2022-08-02T21:12:29.943Z,19.60
2022-08-02T21:16:52.395Z,19.60
2022-08-02T21:21:14.518Z,19.50
2022-08-02T21:25:50.727Z,19.40
2022-08-02T21:30:19.806Z,19.30
2022-08-02T21:34:46.214Z,19.20
2022-08-02T21:39:11.397Z,19.20
2022-08-02T21:43:35.336Z,19.10
2022-08-02T21:48:01.615Z,19.00
2022-08-02T21:52:26.009Z,18.90
2022-08-02T21:56:53.267Z,18.80
2022-08-02T22:01:15.274Z,18.70
2022-08-02T22:05:39.555Z,18.70
2022-08-02T22:10:09.685Z,18.60
2022-08-02T22:14:31.754Z,18.50
2022-08-02T22:18:54.574Z,18.50
2022-08-02T22:23:22.457Z,18.40
2022-08-02T22:28:35.895Z,18.30
2022-08-02T22:33:00.034Z,18.20
2022-08-02T22:38:14.632Z,18.10
2022-08-02T22:42:06.127Z,18.00
2022-08-02T22:46:29.494Z,17.90
2022-08-02T22:50:53.834Z,17.80
2022-08-02T22:55:16.051Z,17.80
2022-08-02T22:59:39.971Z,17.70
2022-08-02T23:04:02.418Z,17.60
2022-08-02T23:08:24.814Z,17.60
2022-08-02T23:12:46.734Z,17.60
2022-08-02T23:17:27.674Z,17.50
2022-08-02T23:22:02.844Z,17.40
2022-08-02T23:26:25.433Z,17.40
2022-08-02T23:30:47.474Z,17.30
2022-08-02T23:35:10.076Z,17.20
2022-08-02T23:39:39.873Z,17.20
2022-08-02T23:44:16.083Z,17.20
2022-08-02T23:48:38.115Z,17.20
2022-08-02T23:53:00.316Z,17.10
2022-08-02T23:57:22.714Z,17.10
